Time;durP1;ratioP1;P1;durP2;ratioP2;P2;SDS_P1;SDS_P2;PMS_P1;PMS_P2;Temp;Humidity;BMP_temperature;BMP_pressure;BME280_temperature;BME280_humidity;BME280_pressure;Samples;Min_cycle;Max_cycle;Signal;HPM_P1;HPM_P2
2021/10/05 00:02:25;;;;;;;0.88;0.88;;;11.40;99.90;;;;;;4994041;28;20753;-73
2021/10/05 00:04:51;;;;;;;0.98;0.98;;;11.40;99.90;;;;;;4992858;28;20234;-76
2021/10/05 00:07:16;;;;;;;1.20;1.15;;;11.40;99.90;;;;;;4992794;28;20689;-76
2021/10/05 00:09:42;;;;;;;2.05;1.25;;;11.40;99.90;;;;;;4994011;28;20211;-76
2021/10/05 00:12:08;;;;;;;0.80;0.80;;;11.50;99.90;;;;;;4992806;28;20211;-76
2021/10/05 00:14:34;;;;;;;3.05;0.80;;;11.50;99.90;;;;;;4993745;28;20651;-76
2021/10/05 00:17:00;;;;;;;9.85;1.27;;;11.50;99.90;;;;;;4994132;28;20203;-76
2021/10/05 00:19:26;;;;;;;2.42;1.60;;;11.50;99.90;;;;;;4992747;28;20208;-77
2021/10/05 00:21:52;;;;;;;0.70;0.70;;;11.40;99.90;;;;;;4991291;28;20246;-76
2021/10/05 00:24:18;;;;;;;0.80;0.80;;;11.50;99.90;;;;;;4992601;28;20633;-76
2021/10/05 00:26:43;;;;;;;0.63;0.63;;;11.50;99.90;;;;;;4991104;28;20211;-76
2021/10/05 00:29:09;;;;;;;0.90;0.90;;;11.40;99.90;;;;;;4993766;28;20211;-75
2021/10/05 00:31:35;;;;;;;1.33;1.15;;;11.40;99.90;;;;;;4993769;28;20207;-75
2021/10/05 00:34:01;;;;;;;0.73;0.73;;;11.40;99.90;;;;;;4992513;28;20203;-75
2021/10/05 00:36:26;;;;;;;0.52;0.52;;;11.40;99.90;;;;;;4992214;28;20214;-73
2021/10/05 00:38:52;;;;;;;0.73;0.73;;;11.40;99.90;;;;;;4993712;28;20729;-75
2021/10/05 00:41:18;;;;;;;0.80;0.80;;;11.40;99.90;;;;;;4990928;28;20203;-75
2021/10/05 00:43:44;;;;;;;0.60;0.60;;;11.40;99.90;;;;;;4990966;28;20377;-75
2021/10/05 00:46:09;;;;;;;1.23;1.13;;;11.40;99.90;;;;;;4992321;28;20366;-76
2021/10/05 00:48:35;;;;;;;0.88;0.88;;;11.40;99.90;;;;;;4993207;28;20282;-75
2021/10/05 00:51:01;;;;;;;0.90;0.90;;;11.40;99.90;;;;;;4993324;28;20326;-75
2021/10/05 00:53:26;;;;;;;0.60;0.60;;;11.40;99.90;;;;;;4993146;28;20290;-75
2021/10/05 00:55:52;;;;;;;0.80;0.80;;;11.40;99.90;;;;;;4993074;28;20202;-76
2021/10/05 00:58:18;;;;;;;0.70;0.70;;;11.40;99.90;;;;;;4992433;28;20205;-76
2021/10/05 01:00:44;;;;;;;1.17;0.80;;;11.40;99.90;;;;;;4992280;28;20222;-75
2021/10/05 01:03:10;;;;;;;4.15;1.27;;;11.40;99.90;;;;;;4991016;28;20306;-75
2021/10/05 01:05:35;;;;;;;1.17;1.08;;;11.40;99.90;;;;;;4990026;28;20231;-75
2021/10/05 01:08:02;;;;;;;1.20;1.10;;;11.40;99.90;;;;;;5008016;28;20702;-76
2021/10/05 01:10:28;;;;;;;1.13;1.05;;;11.40;99.90;;;;;;4992582;28;20218;-75
2021/10/05 01:12:54;;;;;;;0.70;0.70;;;11.40;99.90;;;;;;4992883;28;20234;-76
2021/10/05 01:15:29;;;;;;;0.60;0.60;;;11.40;99.90;;;;;;4991329;28;20674;-75
2021/10/05 01:17:55;;;;;;;0.63;0.63;;;11.40;99.90;;;;;;4991607;28;20238;-75
2021/10/05 01:20:21;;;;;;;0.45;0.45;;;11.40;99.90;;;;;;4991469;28;20247;-75
2021/10/05 01:22:47;;;;;;;1.65;1.30;;;11.40;99.90;;;;;;4990340;28;20673;-75
2021/10/05 01:25:16;;;;;;;0.85;0.85;;;11.40;99.90;;;;;;4990380;28;20607;-75
2021/10/05 01:27:50;;;;;;;1.30;1.15;;;11.40;99.90;;;;;;4992527;28;20207;-76
2021/10/05 01:30:18;;;;;;;0.50;0.50;;;11.40;99.90;;;;;;4991395;28;20246;-76
2021/10/05 01:32:44;;;;;;;1.27;1.05;;;11.30;99.90;;;;;;4992805;28;20654;-76
2021/10/05 01:35:10;;;;;;;0.73;0.73;;;11.40;99.90;;;;;;4991263;28;20226;-76
2021/10/05 01:37:36;;;;;;;1.52;1.30;;;11.30;99.90;;;;;;4991108;28;20272;-76
2021/10/05 01:40:08;;;;;;;2.67;1.88;;;11.30;99.90;;;;;;4991453;28;20562;-76
2021/10/05 01:42:35;;;;;;;65.70;2.50;;;11.30;99.90;;;;;;4991072;28;20199;-75
2021/10/05 01:45:01;;;;;;;2.53;1.40;;;11.40;99.90;;;;;;4991433;28;20207;-75
2021/10/05 01:47:27;;;;;;;0.70;0.70;;;11.40;99.90;;;;;;4992220;28;20212;-76
2021/10/05 01:49:53;;;;;;;1.35;1.23;;;11.40;99.90;;;;;;4990977;28;20274;-76
2021/10/05 01:52:18;;;;;;;0.65;0.65;;;11.40;99.90;;;;;;4991341;28;20250;-75
2021/10/05 01:54:44;;;;;;;1.10;1.00;;;11.30;99.90;;;;;;4991100;28;20235;-76
2021/10/05 01:57:10;;;;;;;1.20;1.17;;;11.30;99.90;;;;;;4992306;28;20215;-76
2021/10/05 01:59:35;;;;;;;2.17;1.17;;;11.40;99.90;;;;;;4991105;28;20256;-76
2021/10/05 02:02:01;;;;;;;0.70;0.70;;;11.30;99.90;;;;;;4988643;28;20207;-75
2021/10/05 02:04:27;;;;;;;0.75;0.75;;;11.30;99.90;;;;;;4991593;28;20231;-76
2021/10/05 02:06:53;;;;;;;0.68;0.68;;;11.30;99.90;;;;;;4990716;28;20262;-76
2021/10/05 02:09:18;;;;;;;0.50;0.50;;;11.30;99.90;;;;;;4990414;28;20302;-75
2021/10/05 02:11:44;;;;;;;0.57;0.55;;;11.30;99.90;;;;;;4989294;28;20203;-75
2021/10/05 02:14:10;;;;;;;1.13;1.02;;;11.30;99.90;;;;;;4991316;28;20266;-75
2021/10/05 02:16:36;;;;;;;0.70;0.70;;;11.30;99.90;;;;;;4995741;28;20200;-75
2021/10/05 02:19:03;;;;;;;6.53;1.60;;;11.30;99.90;;;;;;4994705;28;20206;-75
2021/10/05 02:21:29;;;;;;;0.60;0.60;;;11.30;99.90;;;;;;4994277;28;20206;-75
2021/10/05 02:26:40;;;;;;;0.80;0.80;;;11.30;99.90;;;;;;4994617;28;20314;-75
2021/10/05 02:29:07;;;;;;;1.05;1.05;;;11.30;99.90;;;;;;4994288;28;20211;-75
2021/10/05 02:31:33;;;;;;;0.60;0.60;;;11.30;99.90;;;;;;4994096;28;20238;-74
2021/10/05 02:33:58;;;;;;;0.68;0.68;;;11.30;99.90;;;;;;4995618;28;20247;-75
2021/10/05 02:36:25;;;;;;;3.00;1.20;;;11.20;99.90;;;;;;4994107;28;20199;-75
2021/10/05 02:38:50;;;;;;;0.80;0.80;;;11.20;99.90;;;;;;4994137;28;20199;-74
2021/10/05 02:41:16;;;;;;;0.60;0.60;;;11.20;99.90;;;;;;4992899;28;20261;-74
2021/10/05 02:43:42;;;;;;;1.75;1.27;;;11.30;99.90;;;;;;4993870;28;20677;-75
2021/10/05 02:46:08;;;;;;;1.13;1.02;;;11.30;99.90;;;;;;4994027;28;20208;-74
2021/10/05 02:48:34;;;;;;;0.63;0.63;;;11.30;99.90;;;;;;4993679;28;20327;-74
2021/10/05 02:50:59;;;;;;;0.60;0.60;;;11.30;99.90;;;;;;4995444;28;20205;-74
2021/10/05 02:53:25;;;;;;;0.60;0.60;;;11.40;99.90;;;;;;4994787;28;20195;-74
2021/10/05 02:55:51;;;;;;;0.70;0.70;;;11.30;99.90;;;;;;4994609;28;20200;-75
2021/10/05 02:58:17;;;;;;;0.60;0.60;;;11.40;99.90;;;;;;4993421;28;20207;-75
2021/10/05 03:00:43;;;;;;;2.35;1.20;;;11.40;99.90;;;;;;5009628;28;20275;-74
2021/10/05 03:03:09;;;;;;;0.70;0.70;;;11.40;99.90;;;;;;4993710;28;20204;-75
2021/10/05 03:05:35;;;;;;;0.82;0.82;;;11.40;99.90;;;;;;4994686;28;20235;-74
2021/10/05 03:08:03;;;;;;;1.33;0.80;;;11.40;99.90;;;;;;4994806;28;20675;-75
2021/10/05 03:10:29;;;;;;;2.83;2.05;;;11.40;99.90;;;;;;4994655;28;20203;-75
2021/10/05 03:12:55;;;;;;;1.85;1.50;;;11.40;99.90;;;;;;4993634;28;20208;-75
2021/10/05 03:15:21;;;;;;;0.75;0.75;;;11.30;99.90;;;;;;4993130;28;20588;-74
2021/10/05 03:17:46;;;;;;;0.70;0.70;;;11.40;99.90;;;;;;4994782;28;20207;-75
2021/10/05 03:20:12;;;;;;;0.60;0.60;;;11.30;99.90;;;;;;4993383;28;20207;-75
2021/10/05 03:22:37;;;;;;;0.60;0.60;;;11.30;99.90;;;;;;4994403;28;20202;-74
2021/10/05 03:25:04;;;;;;;1.10;0.82;;;11.40;99.90;;;;;;4992934;28;20222;-74
2021/10/05 03:27:31;;;;;;;0.80;0.80;;;11.30;99.90;;;;;;4993471;28;20286;-74
2021/10/05 03:29:58;;;;;;;0.55;0.55;;;11.40;99.90;;;;;;4993118;28;20298;-74
2021/10/05 03:32:24;;;;;;;0.57;0.57;;;11.40;99.90;;;;;;4992934;28;20218;-74
2021/10/05 03:34:49;;;;;;;1.10;1.00;;;11.30;99.90;;;;;;4993165;28;20211;-75
2021/10/05 03:37:15;;;;;;;2.58;1.02;;;11.30;99.90;;;;;;4992038;28;20717;-75
2021/10/05 03:39:41;;;;;;;1.15;0.95;;;11.30;99.90;;;;;;4994233;28;20262;-75
2021/10/05 03:42:06;;;;;;;0.90;0.88;;;11.30;99.90;;;;;;4994672;28;20262;-74
2021/10/05 03:44:32;;;;;;;0.90;0.90;;;11.40;99.90;;;;;;4992904;28;20211;-75
2021/10/05 03:46:59;;;;;;;0.65;0.65;;;11.30;99.90;;;;;;4993222;28;20241;-75
2021/10/05 03:49:25;;;;;;;1.70;0.90;;;11.40;99.90;;;;;;4992526;28;20671;-74
2021/10/05 03:51:50;;;;;;;0.60;0.60;;;11.40;99.90;;;;;;4994186;28;20211;-75
2021/10/05 03:54:16;;;;;;;1.20;0.95;;;11.40;99.90;;;;;;4992798;28;20219;-74
2021/10/05 03:56:42;;;;;;;1.15;0.85;;;11.40;99.90;;;;;;4993058;28;20558;-75
2021/10/05 03:59:08;;;;;;;0.82;0.82;;;11.40;99.90;;;;;;4993904;28;20211;-73
2021/10/05 04:01:34;;;;;;;56.95;2.80;;;11.40;99.90;;;;;;4993579;28;20211;-75
2021/10/05 04:04:00;;;;;;;0.73;0.73;;;11.40;99.90;;;;;;4992513;28;20547;-75
2021/10/05 04:06:25;;;;;;;0.70;0.70;;;11.40;99.90;;;;;;4992432;28;20620;-74
2021/10/05 04:08:51;;;;;;;0.60;0.60;;;11.40;99.90;;;;;;4993802;28;20207;-73
2021/10/05 04:11:17;;;;;;;1.15;1.13;;;11.40;99.90;;;;;;4992642;28;20235;-74
2021/10/05 04:13:43;;;;;;;0.60;0.60;;;11.40;99.90;;;;;;4992162;28;20516;-74
2021/10/05 04:16:08;;;;;;;0.60;0.60;;;11.40;99.90;;;;;;4992472;28;20283;-74
2021/10/05 04:18:34;;;;;;;1.05;0.80;;;11.40;99.90;;;;;;4992434;28;20737;-75
2021/10/05 04:21:00;;;;;;;0.88;0.88;;;11.40;99.90;;;;;;4992288;28;20210;-75
2021/10/05 04:23:25;;;;;;;0.70;0.70;;;11.40;99.90;;;;;;4992235;28;20514;-74
2021/10/05 04:25:51;;;;;;;0.95;0.70;;;11.30;99.90;;;;;;4993490;28;20270;-74
2021/10/05 04:28:17;;;;;;;1.10;1.05;;;11.30;99.90;;;;;;4993263;28;20239;-75
2021/10/05 04:30:43;;;;;;;0.80;0.75;;;11.30;99.90;;;;;;4990106;28;20203;-75
2021/10/05 04:33:08;;;;;;;0.60;0.60;;;11.30;99.90;;;;;;4993733;28;20237;-74
2021/10/05 04:35:34;;;;;;;1.52;1.33;;;11.30;99.90;;;;;;4993284;28;20203;-74
2021/10/05 04:38:00;;;;;;;0.77;0.77;;;11.30;99.90;;;;;;4992099;28;20219;-74
2021/10/05 04:40:25;;;;;;;0.65;0.65;;;11.30;99.90;;;;;;4990594;28;20558;-75
2021/10/05 04:42:51;;;;;;;1.95;1.23;;;11.30;99.90;;;;;;4992111;28;20615;-75
2021/10/05 04:45:18;;;;;;;0.90;0.90;;;11.30;99.90;;;;;;4992077;28;20211;-75
2021/10/05 04:47:43;;;;;;;2.15;1.23;;;11.30;99.90;;;;;;4991895;28;20212;-75
2021/10/05 04:50:11;;;;;;;1.10;1.00;;;11.30;99.90;;;;;;4991903;28;20257;-74
2021/10/05 04:52:37;;;;;;;0.77;0.77;;;11.30;99.90;;;;;;4991771;28;20214;-73
2021/10/05 04:55:05;;;;;;;0.70;0.70;;;11.20;99.90;;;;;;4990541;28;20217;-72
2021/10/05 04:57:30;;;;;;;1.10;1.00;;;11.30;99.90;;;;;;4991637;28;20206;-74
2021/10/05 04:59:56;;;;;;;0.98;0.93;;;11.20;99.90;;;;;;4993124;28;20195;-73
2021/10/05 05:02:22;;;;;;;0.70;0.70;;;11.30;99.90;;;;;;4991682;28;20277;-73
2021/10/05 05:04:47;;;;;;;0.88;0.88;;;11.30;99.90;;;;;;4991680;28;20234;-73
2021/10/05 05:07:13;;;;;;;0.80;0.75;;;11.30;99.90;;;;;;4990500;28;20690;-75
2021/10/05 05:09:39;;;;;;;1.08;1.00;;;11.30;99.90;;;;;;4992920;28;20231;-75
2021/10/05 05:12:05;;;;;;;32.10;1.60;;;11.30;99.90;;;;;;4974668;28;20224;-75
2021/10/05 05:14:31;;;;;;;1.10;0.95;;;11.30;99.90;;;;;;4991630;28;20215;-75
2021/10/05 05:16:57;;;;;;;0.60;0.60;;;11.30;99.90;;;;;;4990168;28;20214;-75
2021/10/05 05:19:23;;;;;;;0.80;0.80;;;11.20;99.90;;;;;;4991489;28;20204;-76
2021/10/05 05:21:49;;;;;;;0.70;0.70;;;11.20;99.90;;;;;;4992858;28;20622;-75
2021/10/05 05:24:15;;;;;;;0.60;0.60;;;11.20;99.90;;;;;;4992864;28;20218;-75
2021/10/05 05:26:41;;;;;;;0.70;0.70;;;11.20;99.90;;;;;;4991178;28;20223;-73
2021/10/05 05:29:07;;;;;;;3.65;1.77;;;11.20;99.90;;;;;;4992583;28;20215;-74
2021/10/05 05:31:32;;;;;;;3.20;2.25;;;11.20;99.90;;;;;;4990110;28;20291;-74
2021/10/05 05:33:58;;;;;;;0.95;0.70;;;11.20;99.90;;;;;;4990185;28;20548;-75
2021/10/05 05:36:24;;;;;;;0.60;0.60;;;11.30;99.90;;;;;;4989994;28;20704;-74
2021/10/05 05:38:49;;;;;;;0.70;0.70;;;11.30;99.90;;;;;;4992615;28;20206;-73
2021/10/05 05:41:15;;;;;;;0.90;0.90;;;11.30;99.90;;;;;;4991484;28;20283;-75
2021/10/05 05:43:41;;;;;;;0.60;0.60;;;11.30;99.90;;;;;;4992463;28;20267;-74
2021/10/05 05:46:06;;;;;;;0.90;0.88;;;11.30;99.90;;;;;;4991231;28;20243;-74
2021/10/05 05:48:32;;;;;;;1.08;0.95;;;11.30;99.90;;;;;;4991898;28;20222;-75
2021/10/05 05:50:58;;;;;;;1.65;1.25;;;11.30;99.90;;;;;;4992202;28;20663;-73
2021/10/05 05:53:23;;;;;;;12.77;1.65;;;11.30;99.90;;;;;;4992367;28;20303;-74
2021/10/05 05:55:49;;;;;;;0.80;0.80;;;11.30;99.90;;;;;;4991045;28;20215;-75
2021/10/05 05:58:17;;;;;;;6.10;1.52;;;11.30;99.90;;;;;;4989498;28;20208;-75
2021/10/05 06:00:44;;;;;;;0.93;0.93;;;11.40;99.90;;;;;;4992393;28;20211;-75
2021/10/05 06:03:12;;;;;;;0.63;0.63;;;11.40;99.90;;;;;;4991137;28;20203;-74
2021/10/05 06:05:39;;;;;;;0.60;0.60;;;11.40;99.90;;;;;;5006253;28;20318;-75
2021/10/05 06:08:06;;;;;;;0.60;0.60;;;11.40;99.90;;;;;;4990931;28;20246;-74
2021/10/05 06:10:32;;;;;;;0.88;0.88;;;11.40;99.90;;;;;;4992048;28;20266;-74
2021/10/05 06:12:57;;;;;;;1.58;1.35;;;11.40;99.90;;;;;;4991045;28;20222;-76
2021/10/05 06:15:24;;;;;;;1.85;1.55;;;11.50;99.90;;;;;;4991607;28;20224;-74
2021/10/05 06:17:50;;;;;;;1.15;1.13;;;11.50;99.90;;;;;;4990575;28;20204;-74
2021/10/05 06:20:23;;;;;;;1.08;0.98;;;11.50;99.90;;;;;;4992161;28;20214;-73
2021/10/05 06:22:50;;;;;;;0.57;0.57;;;11.60;99.90;;;;;;4991863;28;20211;-72
2021/10/05 06:25:18;;;;;;;1.38;1.27;;;11.60;99.90;;;;;;4991923;28;20219;-73
2021/10/05 06:27:45;;;;;;;0.95;0.93;;;11.70;99.90;;;;;;4989465;28;20620;-74
2021/10/05 06:30:13;;;;;;;0.73;0.73;;;11.70;99.90;;;;;;4989406;28;20265;-75
2021/10/05 06:32:39;;;;;;;0.60;0.60;;;11.80;99.90;;;;;;4990420;28;20754;-75
2021/10/05 06:35:06;;;;;;;0.80;0.80;;;11.80;99.90;;;;;;4990503;28;20310;-74
2021/10/05 06:37:32;;;;;;;0.80;0.80;;;11.80;99.90;;;;;;4990609;28;20733;-75
2021/10/05 06:39:58;;;;;;;0.80;0.80;;;11.80;99.90;;;;;;4992212;28;20296;-75
2021/10/05 06:42:24;;;;;;;2.35;0.88;;;11.80;99.90;;;;;;4990563;28;20202;-75
2021/10/05 06:44:49;;;;;;;1.02;1.02;;;11.80;99.90;;;;;;4991861;28;20273;-74
2021/10/05 06:47:15;;;;;;;1.15;1.00;;;11.80;99.90;;;;;;4990616;28;20215;-74
2021/10/05 06:49:41;;;;;;;0.77;0.77;;;11.70;99.90;;;;;;4990392;28;20257;-74
2021/10/05 06:52:07;;;;;;;0.52;0.52;;;11.70;99.90;;;;;;4990731;28;20207;-74
2021/10/05 06:54:33;;;;;;;0.60;0.60;;;11.80;99.90;;;;;;4990277;28;20305;-75
2021/10/05 06:56:59;;;;;;;0.70;0.70;;;11.80;99.90;;;;;;4990336;28;20224;-76
2021/10/05 06:59:25;;;;;;;0.50;0.50;;;11.80;99.90;;;;;;4990534;28;20188;-76
2021/10/05 07:01:52;;;;;;;0.70;0.70;;;11.80;99.90;;;;;;4995117;28;20610;-75
2021/10/05 07:04:17;;;;;;;0.80;0.80;;;11.80;99.90;;;;;;4994047;28;20250;-75
2021/10/05 07:06:44;;;;;;;1.27;0.75;;;11.80;99.90;;;;;;4995454;28;20659;-75
2021/10/05 07:09:11;;;;;;;0.70;0.70;;;11.80;99.90;;;;;;4993796;28;20653;-75
2021/10/05 07:11:37;;;;;;;1.13;1.00;;;11.90;99.90;;;;;;4995000;28;20294;-74
2021/10/05 07:14:03;;;;;;;0.52;0.52;;;11.90;99.90;;;;;;4992420;28;20219;-75
2021/10/05 07:16:29;;;;;;;0.90;0.90;;;11.80;99.90;;;;;;4993578;28;20577;-74
2021/10/05 07:18:54;;;;;;;1.15;1.15;;;11.80;99.90;;;;;;4994166;28;20202;-75
2021/10/05 07:21:23;;;;;;;0.70;0.70;;;11.90;99.90;;;;;;4993518;28;20678;-75
2021/10/05 07:23:49;;;;;;;0.70;0.70;;;11.90;99.90;;;;;;4992387;28;20196;-76
2021/10/05 07:26:16;;;;;;;2.03;1.40;;;11.80;99.90;;;;;;4993591;28;20208;-75
2021/10/05 07:28:42;;;;;;;1.05;1.05;;;11.80;99.90;;;;;;4992124;28;20235;-75
2021/10/05 07:31:08;;;;;;;1.02;1.00;;;11.80;99.90;;;;;;4994640;28;20235;-75
2021/10/05 07:33:34;;;;;;;0.60;0.60;;;11.80;99.90;;;;;;4992009;28;20199;-74
2021/10/05 07:35:59;;;;;;;0.95;0.95;;;11.80;99.90;;;;;;4994602;28;20684;-75
2021/10/05 07:38:25;;;;;;;0.70;0.70;;;11.80;99.90;;;;;;4993226;28;20203;-75
2021/10/05 07:40:51;;;;;;;0.47;0.47;;;12.00;99.90;;;;;;4994675;28;20651;-75
2021/10/05 07:43:16;;;;;;;1.10;0.80;;;12.10;99.90;;;;;;4993353;28;20551;-75
2021/10/05 07:45:42;;;;;;;0.60;0.60;;;12.30;99.90;;;;;;4993196;28;20734;-75
2021/10/05 07:48:08;;;;;;;1.00;1.00;;;12.50;99.90;;;;;;4991929;28;20410;-74
2021/10/05 07:50:34;;;;;;;0.60;0.60;;;12.80;99.90;;;;;;4994001;28;20693;-74
2021/10/05 07:53:01;;;;;;;0.60;0.60;;;12.90;99.90;;;;;;4991739;28;20228;-75
2021/10/05 07:55:32;;;;;;;3.15;1.08;;;12.70;99.90;;;;;;4990796;28;20278;-74
2021/10/05 07:57:58;;;;;;;1.15;1.05;;;12.70;99.90;;;;;;5007462;28;20208;-73
2021/10/05 08:00:24;;;;;;;0.63;0.63;;;12.70;99.90;;;;;;4992335;28;20742;-73
2021/10/05 08:02:49;;;;;;;0.65;0.65;;;12.80;99.90;;;;;;4993965;28;20291;-73
2021/10/05 08:05:16;;;;;;;0.75;0.75;;;12.70;99.90;;;;;;4994076;28;20311;-75
2021/10/05 08:07:46;;;;;;;0.60;0.60;;;12.80;99.90;;;;;;4992880;28;20203;-75
2021/10/05 08:10:13;;;;;;;5.75;2.45;;;12.90;99.90;;;;;;4992373;28;20212;-75
2021/10/05 08:12:40;;;;;;;0.77;0.77;;;13.10;99.90;;;;;;4992102;28;20219;-76
2021/10/05 08:15:07;;;;;;;0.70;0.70;;;13.20;99.90;;;;;;4992731;28;20211;-75
2021/10/05 08:17:33;;;;;;;0.55;0.55;;;13.20;99.90;;;;;;4993962;28;20663;-74
2021/10/05 08:19:59;;;;;;;1.85;1.40;;;13.20;99.90;;;;;;4994072;28;20562;-75
2021/10/05 08:22:25;;;;;;;3.60;1.35;;;13.00;99.90;;;;;;4993784;28;20250;-75
2021/10/05 08:24:51;;;;;;;10.02;1.55;;;13.00;99.90;;;;;;4993813;28;20294;-76
2021/10/05 08:27:17;;;;;;;0.80;0.75;;;13.00;99.90;;;;;;4993742;28;20243;-76
2021/10/05 08:29:45;;;;;;;0.60;0.60;;;12.90;99.90;;;;;;4992962;28;20690;-76
2021/10/05 08:32:11;;;;;;;0.60;0.60;;;13.00;99.90;;;;;;4992247;28;20215;-76
2021/10/05 08:34:38;;;;;;;0.60;0.60;;;13.00;99.90;;;;;;4991962;28;20223;-75
2021/10/05 08:37:04;;;;;;;4.95;1.85;;;13.00;99.90;;;;;;4992347;28;20203;-76
2021/10/05 08:39:30;;;;;;;0.60;0.60;;;13.00;99.90;;;;;;4992122;28;20207;-76
2021/10/05 08:41:56;;;;;;;0.80;0.80;;;12.90;99.90;;;;;;4990736;28;20196;-76
2021/10/05 08:44:24;;;;;;;0.65;0.65;;;12.90;99.90;;;;;;4993274;28;20215;-75
2021/10/05 08:46:51;;;;;;;1.10;0.82;;;12.90;99.90;;;;;;4992591;28;20331;-76
2021/10/05 08:49:19;;;;;;;0.88;0.88;;;12.90;99.90;;;;;;4992313;28;20379;-75
2021/10/05 08:51:46;;;;;;;0.60;0.60;;;13.00;99.90;;;;;;4992624;28;20529;-77
2021/10/05 08:54:12;;;;;;;0.60;0.50;;;13.20;99.90;;;;;;4993436;28;20294;-74
2021/10/05 08:56:43;;;;;;;0.63;0.63;;;13.30;99.90;;;;;;4991919;28;20219;-76
2021/10/05 08:59:09;;;;;;;3.28;2.25;;;13.30;99.90;;;;;;4991922;28;20568;-76
2021/10/05 09:01:35;;;;;;;8.98;1.33;;;13.30;99.90;;;;;;4990283;28;20298;-76
2021/10/05 09:04:03;;;;;;;1.13;1.00;;;13.30;99.90;;;;;;4993210;28;20235;-76
2021/10/05 09:06:30;;;;;;;0.85;0.68;;;13.20;99.90;;;;;;4991891;28;20242;-76
2021/10/05 09:08:56;;;;;;;0.60;0.60;;;13.10;99.90;;;;;;4990521;28;20234;-76
2021/10/05 09:11:24;;;;;;;0.82;0.80;;;13.10;99.90;;;;;;4991657;28;20492;-76
2021/10/05 09:13:56;;;;;;;0.88;0.82;;;13.00;99.90;;;;;;4993139;28;20215;-75
2021/10/05 09:16:26;;;;;;;0.80;0.77;;;13.00;99.90;;;;;;4992869;28;20221;-76
2021/10/05 09:19:05;;;;;;;0.85;0.80;;;13.00;99.90;;;;;;4992938;28;20258;-75
2021/10/05 09:21:43;;;;;;;3.13;1.40;;;13.10;99.90;;;;;;4991462;28;20257;-74
2021/10/05 09:24:10;;;;;;;0.70;0.70;;;13.20;99.90;;;;;;4992084;28;20211;-75
2021/10/05 09:26:49;;;;;;;22.33;1.15;;;13.20;99.90;;;;;;4990208;28;20555;-75
2021/10/05 09:29:19;;;;;;;0.60;0.60;;;13.20;99.90;;;;;;4990083;28;20210;-75
2021/10/05 09:32:07;;;;;;;2.45;1.20;;;13.10;99.90;;;;;;4991216;28;20265;-75
2021/10/05 09:34:39;;;;;;;0.60;0.60;;;13.10;99.90;;;;;;4992439;28;20207;-75
2021/10/05 09:37:22;;;;;;;0.60;0.60;;;13.00;99.90;;;;;;4990036;28;20229;-75
2021/10/05 09:39:52;;;;;;;0.63;0.63;;;13.00;99.90;;;;;;4990635;28;20624;-75
2021/10/05 09:42:24;;;;;;;0.60;0.60;;;12.90;99.90;;;;;;4991424;28;20658;-75
2021/10/05 09:45:16;;;;;;;0.60;0.60;;;12.80;99.90;;;;;;4991480;28;20204;-75
2021/10/05 09:47:44;;;;;;;0.73;0.73;;;12.90;99.90;;;;;;4990863;28;20553;-75
2021/10/05 09:50:14;;;;;;;0.75;0.75;;;12.90;99.90;;;;;;4989831;28;20527;-75
2021/10/05 09:52:49;;;;;;;1.10;1.00;;;13.00;99.90;;;;;;5007282;28;20211;-75
2021/10/05 09:55:17;;;;;;;0.75;0.75;;;13.10;99.90;;;;;;4990916;28;20757;-76
2021/10/05 09:57:43;;;;;;;0.70;0.70;;;13.20;99.90;;;;;;4992415;28;20211;-75
2021/10/05 10:00:10;;;;;;;0.93;0.70;;;13.20;99.90;;;;;;4992271;28;20254;-75
2021/10/05 10:02:37;;;;;;;1.25;1.15;;;13.10;99.90;;;;;;4989843;28;20302;-75
2021/10/05 10:05:07;;;;;;;0.50;0.50;;;13.00;99.90;;;;;;4991315;28;20269;-76
2021/10/05 10:07:39;;;;;;;0.70;0.70;;;12.90;99.90;;;;;;4989675;28;20242;-75
2021/10/05 10:10:19;;;;;;;0.75;0.75;;;12.80;99.90;;;;;;4998433;28;20252;-76
2021/10/05 10:13:04;;;;;;;1.05;1.00;;;12.70;99.90;;;;;;4985125;28;20237;-75
2021/10/05 10:15:35;;;;;;;0.63;0.63;;;12.60;99.90;;;;;;4990763;28;20704;-74
2021/10/05 10:18:07;;;;;;;0.93;0.93;;;12.60;99.90;;;;;;4991137;28;20362;-74
2021/10/05 10:20:34;;;;;;;0.57;0.57;;;12.60;99.90;;;;;;4991052;28;20290;-74
2021/10/05 10:22:59;;;;;;;1.40;1.25;;;12.70;99.90;;;;;;4992382;28;20207;-74
2021/10/05 10:25:33;;;;;;;0.60;0.60;;;12.70;99.90;;;;;;4991337;28;20215;-74
2021/10/05 10:28:12;;;;;;;0.88;0.88;;;12.80;99.90;;;;;;5007156;28;20207;-74
2021/10/05 10:30:52;;;;;;;1.05;0.95;;;13.00;99.90;;;;;;4992103;28;20301;-75
2021/10/05 10:33:19;;;;;;;0.90;0.90;;;13.00;99.90;;;;;;4989452;28;20691;-75
2021/10/05 10:35:53;;;;;;;0.63;0.63;;;12.90;99.90;;;;;;4985445;28;20238;-75
2021/10/05 10:38:27;;;;;;;0.90;0.90;;;12.80;99.90;;;;;;4989409;28;20737;-75
2021/10/05 10:40:53;;;;;;;0.95;0.95;;;12.70;99.90;;;;;;4995752;28;20278;-75
2021/10/05 10:43:22;;;;;;;0.73;0.73;;;12.60;99.90;;;;;;4994489;28;20694;-75
2021/10/05 10:45:58;;;;;;;0.70;0.70;;;12.60;99.90;;;;;;4993447;28;20211;-75
2021/10/05 10:48:35;;;;;;;0.50;0.50;;;12.60;99.90;;;;;;4995976;28;20210;-75
2021/10/05 10:51:22;;;;;;;0.80;0.80;;;12.60;99.90;;;;;;4995909;28;20215;-75
2021/10/05 10:53:47;;;;;;;0.60;0.60;;;12.70;99.90;;;;;;4995801;28;20278;-74
2021/10/05 10:56:35;;;;;;;1.15;0.82;;;12.80;99.90;;;;;;4994026;28;20282;-74
2021/10/05 10:59:06;;;;;;;1.42;1.30;;;12.70;99.90;;;;;;4988659;28;20206;-75
2021/10/05 11:01:45;;;;;;;3.10;1.42;;;12.60;99.90;;;;;;4995081;28;20287;-76
2021/10/05 11:04:12;;;;;;;1.00;0.93;;;12.60;99.90;;;;;;4995480;28;20281;-77
2021/10/05 11:06:39;;;;;;;0.95;0.95;;;12.60;99.90;;;;;;4994297;28;20215;-75
2021/10/05 11:09:06;;;;;;;1.00;0.90;;;12.60;99.90;;;;;;4992989;28;20654;-75
2021/10/05 11:11:43;;;;;;;2.78;1.40;;;12.50;99.90;;;;;;4994064;28;20226;-75
2021/10/05 11:14:12;;;;;;;0.50;0.50;;;12.60;99.90;;;;;;4994194;28;20203;-75
2021/10/05 11:16:39;;;;;;;0.70;0.70;;;12.60;99.90;;;;;;4995073;28;20207;-75
2021/10/05 11:19:16;;;;;;;0.52;0.52;;;12.60;99.90;;;;;;4993809;28;20303;-75
2021/10/05 11:21:47;;;;;;;0.80;0.80;;;12.70;99.90;;;;;;4994884;28;20709;-74
2021/10/05 11:24:15;;;;;;;0.50;0.50;;;12.80;99.90;;;;;;4994078;28;20260;-78
2021/10/05 11:26:47;;;;;;;0.82;0.77;;;12.80;99.90;;;;;;4993422;28;20208;-75
2021/10/05 11:29:26;;;;;;;0.50;0.50;;;12.80;99.90;;;;;;4994728;28;20204;-72
2021/10/05 11:31:56;;;;;;;2.05;1.60;;;12.90;99.90;;;;;;4993585;28;20238;-74
2021/10/05 11:34:22;;;;;;;0.60;0.60;;;12.70;99.90;;;;;;4993454;28;20212;-73
2021/10/05 11:36:48;;;;;;;1.25;1.00;;;12.80;99.90;;;;;;4993646;28;20258;-73
2021/10/05 11:39:25;;;;;;;0.70;0.70;;;12.90;99.90;;;;;;4993828;28;20208;-76
2021/10/05 11:42:00;;;;;;;0.50;0.50;;;12.90;99.90;;;;;;4992244;28;20218;-75
2021/10/05 11:44:28;;;;;;;0.85;0.80;;;12.90;99.90;;;;;;4992198;28;20302;-74
2021/10/05 11:47:03;;;;;;;0.95;0.95;;;13.00;99.90;;;;;;4993680;28;20204;-74
2021/10/05 11:49:35;;;;;;;0.70;0.70;;;13.10;99.90;;;;;;4991867;28;20203;-74
2021/10/05 11:52:03;;;;;;;0.47;0.47;;;13.20;99.90;;;;;;4993333;28;20200;-75
2021/10/05 11:54:31;;;;;;;0.70;0.70;;;13.30;99.90;;;;;;4993078;28;20242;-75
2021/10/05 11:56:58;;;;;;;1.20;0.90;;;13.30;99.90;;;;;;4994494;28;20206;-75
2021/10/05 11:59:26;;;;;;;0.70;0.70;;;13.30;99.90;;;;;;4994291;28;20287;-74
2021/10/05 12:01:57;;;;;;;0.90;0.90;;;13.40;99.90;;;;;;4993129;28;20211;-74
2021/10/05 12:04:27;;;;;;;0.60;0.60;;;13.40;99.90;;;;;;4992722;28;20270;-75
2021/10/05 12:07:01;;;;;;;1.23;0.98;;;13.40;99.90;;;;;;4992967;28;20215;-74
2021/10/05 12:09:29;;;;;;;0.52;0.52;;;13.50;99.90;;;;;;4991476;28;20203;-75
2021/10/05 12:12:02;;;;;;;0.55;0.55;;;13.70;99.90;;;;;;4994068;28;20542;-75
2021/10/05 12:14:58;;;;;;;0.60;0.60;;;13.80;99.90;;;;;;4992881;28;20283;-75
2021/10/05 12:17:25;;;;;;;0.88;0.80;;;13.90;99.90;;;;;;4987275;28;20218;-75
2021/10/05 12:19:59;;;;;;;0.77;0.77;;;13.90;99.90;;;;;;4993880;28;20594;-74
2021/10/05 12:22:28;;;;;;;0.70;0.70;;;13.80;99.90;;;;;;4991410;28;20229;-75
2021/10/05 12:24:56;;;;;;;1.67;1.25;;;13.90;99.90;;;;;;4996438;28;20999;-75
2021/10/05 12:27:30;;;;;;;0.98;0.98;;;14.00;99.90;;;;;;5012287;28;20212;-75
2021/10/05 12:30:02;;;;;;;0.77;0.77;;;14.10;99.90;;;;;;5009292;28;20218;-74
2021/10/05 12:32:52;;;;;;;0.60;0.60;;;14.20;99.90;;;;;;4992454;28;20211;-75
2021/10/05 12:35:30;;;;;;;2.53;1.00;;;14.20;99.90;;;;;;4993111;28;20211;-77
2021/10/05 12:38:22;;;;;;;2.40;2.20;;;14.20;99.90;;;;;;4992753;28;20662;-77
2021/10/05 12:40:51;;;;;;;0.40;0.40;;;14.20;99.90;;;;;;4991485;28;20266;-77
2021/10/05 12:43:19;;;;;;;0.50;0.50;;;14.20;99.90;;;;;;4992959;28;20207;-74
2021/10/05 12:45:57;;;;;;;0.75;0.75;;;14.20;99.90;;;;;;4985318;28;20204;-77
2021/10/05 12:48:35;;;;;;;0.50;0.50;;;14.20;99.90;;;;;;4982884;28;20373;-77
2021/10/05 12:51:05;;;;;;;0.60;0.60;;;14.10;99.90;;;;;;4993713;28;20548;-77
2021/10/05 12:53:31;;;;;;;0.50;0.50;;;14.20;99.90;;;;;;4992597;28;20235;-74